Time;durP1;ratioP1;P1;durP2;ratioP2;P2;SDS_P1;SDS_P2;PMS_P1;PMS_P2;Temp;Humidity;BMP_temperature;BMP_pressure;BME280_temperature;BME280_humidity;BME280_pressure;Samples;Min_cycle;Max_cycle;Signal;HPM_P1;HPM_P2
2021/12/11 00:01:43;;;;;;;24.37;4.80;;;;;;;-2.71;27.46;100922.13;5075327;28;20130;-74
2021/12/11 00:04:14;;;;;;;11.43;5.53;;;;;;;-2.63;26.93;100934.00;5076473;28;20282;-75
2021/12/11 00:06:46;;;;;;;9.67;5.20;;;;;;;-2.66;26.82;100930.66;5093445;28;20287;-75
2021/12/11 00:09:19;;;;;;;12.47;6.23;;;;;;;-2.78;27.08;100912.81;5075755;28;20831;-76
2021/12/11 00:11:49;;;;;;;11.07;5.80;;;;;;;-2.84;27.27;100920.75;5075076;28;20286;-75
2021/12/11 00:14:16;;;;;;;11.98;7.10;;;;;;;-3.21;27.14;100884.56;5075545;28;20776;-75
2021/12/11 00:16:42;;;;;;;14.73;7.03;;;;;;;-3.37;26.96;100931.78;5041626;28;20043;-75
2021/12/11 00:19:19;;;;;;;12.00;6.50;;;;;;;-3.06;27.49;100948.25;5092476;28;20436;-74
2021/12/11 00:21:46;;;;;;;12.87;6.13;;;;;;;-3.30;27.24;100921.19;5075140;28;20485;-74
2021/12/11 00:24:16;;;;;;;10.63;6.00;;;;;;;-3.10;27.34;100941.41;5074342;28;20377;-74
2021/12/11 00:26:47;;;;;;;17.52;7.25;;;;;;;-3.11;27.39;100942.31;5057414;28;20290;-74
2021/12/11 00:29:14;;;;;;;12.90;5.90;;;;;;;-3.20;27.13;100951.22;5074086;28;20046;-75
2021/12/11 00:31:46;;;;;;;10.20;6.07;;;;;;;-2.85;27.30;100940.72;5090635;28;20054;-74
2021/12/11 00:34:14;;;;;;;13.07;7.07;;;;;;;-3.60;27.64;100929.78;5057044;28;20840;-74
2021/12/11 00:36:47;;;;;;;10.43;6.07;;;;;;;-3.89;28.03;100937.41;5090783;28;20828;-75
2021/12/11 00:39:15;;;;;;;10.17;6.00;;;;;;;-3.99;28.43;100929.00;5074148;28;20773;-75
2021/12/11 00:41:49;;;;;;;11.63;5.57;;;;;;;-3.73;28.05;100933.56;5039896;28;20274;-75
2021/12/11 00:44:16;;;;;;;6.43;4.40;;;;;;;-4.91;29.18;100935.38;5091098;28;20294;-74
2021/12/11 00:46:42;;;;;;;14.07;5.87;;;;;;;-4.55;28.89;100923.38;5073670;28;20309;-74
2021/12/11 00:49:21;;;;;;;12.83;5.63;;;;;;;-3.76;28.85;100921.50;5072737;28;20375;-74
2021/12/11 00:51:53;;;;;;;9.27;5.63;;;;;;;-3.78;28.70;100917.22;5073097;28;20289;-74
2021/12/11 00:54:20;;;;;;;8.40;5.17;;;;;;;-4.65;29.31;100895.94;5073902;28;20831;-74
2021/12/11 00:56:47;;;;;;;12.30;5.57;;;;;;;-4.33;28.91;100917.69;5074853;28;20381;-73
2021/12/11 00:59:18;;;;;;;13.00;6.63;;;;;;;-3.74;28.66;100917.13;5091478;28;20286;-73
2021/12/11 01:01:46;;;;;;;13.17;5.83;;;;;;;-4.25;28.25;100933.94;5074624;28;20409;-73
2021/12/11 01:04:20;;;;;;;14.53;8.13;;;;;;;-3.83;28.74;100932.91;5057216;28;20327;-73
2021/12/11 01:06:53;;;;;;;7.20;4.90;;;;;;;-4.11;28.97;100903.34;5090652;28;20290;-74
2021/12/11 01:09:23;;;;;;;10.73;5.70;;;;;;;-3.77;28.01;100921.56;5057244;28;20774;-73
2021/12/11 01:12:14;;;;;;;12.57;6.38;;;;;;;-3.98;28.65;100933.28;5041183;28;20277;-75
2021/12/11 01:14:51;;;;;;;;;;;;;;;-3.24;27.31;100928.81;5057815;28;20058;-75
2021/12/11 01:17:40;;;;;;;10.17;4.23;;;;;;;-3.54;28.00;100908.84;5075960;28;20279;-74
2021/12/11 01:20:13;;;;;;;6.07;4.37;;;;;;;-3.71;27.79;100917.06;5042231;28;20310;-74
2021/12/11 01:22:40;;;;;;;7.73;5.03;;;;;;;-4.13;27.78;100918.09;5056768;28;20278;-74
2021/12/11 01:25:12;;;;;;;10.87;4.60;;;;;;;-4.02;27.67;100884.97;5056761;28;20301;-74
2021/12/11 01:27:41;;;;;;;9.77;4.93;;;;;;;-3.70;27.52;100930.88;5056847;28;20282;-73
2021/12/11 01:30:12;;;;;;;10.77;5.17;;;;;;;-3.78;27.66;100923.28;5040466;28;20282;-74
2021/12/11 01:32:39;;;;;;;9.10;4.60;;;;;;;-4.10;27.39;100930.13;5056814;28;20278;-74
2021/12/11 01:35:07;;;;;;;11.93;5.37;;;;;;;-3.59;27.21;100945.31;5090082;28;20278;-75
2021/12/11 01:37:33;;;;;;;7.80;4.30;;;;;;;-4.44;28.00;100952.50;5089640;28;20761;-74
2021/12/11 01:40:01;;;;;;;10.50;4.40;;;;;;;-3.80;27.64;100958.78;5089801;28;20283;-75
2021/12/11 01:42:31;;;;;;;9.30;4.90;;;;;;;-3.68;27.55;100947.28;5055969;28;20757;-74
2021/12/11 01:44:59;;;;;;;7.28;4.60;;;;;;;-3.90;27.98;100949.53;5056145;28;20286;-74
2021/12/11 01:47:29;;;;;;;8.43;5.23;;;;;;;-4.01;27.60;100907.41;5072646;28;20143;-73
2021/12/11 01:49:59;;;;;;;11.73;5.90;;;;;;;-4.11;28.04;100947.44;5071652;28;20315;-73
2021/12/11 01:52:34;;;;;;;;;;;;;;;-3.58;27.10;100943.53;5055266;28;20290;-73
2021/12/11 01:55:01;;;;;;;13.27;7.53;;;;;;;-5.11;28.44;100905.53;5072690;28;20394;-73
2021/12/11 01:57:30;;;;;;;6.50;4.67;;;;;;;-4.25;28.38;100939.13;5070946;28;20282;-73
2021/12/11 02:00:07;;;;;;;9.63;5.03;;;;;;;-3.82;27.61;100937.25;5088676;28;20635;-73
2021/12/11 02:02:41;;;;;;;11.02;5.05;;;;;;;-3.90;27.79;100933.97;5072344;28;20652;-73
2021/12/11 02:05:07;;;;;;;;;;;;;;;-3.49;26.89;100944.19;5072698;28;20151;-74
2021/12/11 02:07:41;;;;;;;7.60;4.50;;;;;;;-3.68;26.97;100936.91;5072470;28;19955;-74
2021/12/11 02:10:16;;;;;;;8.13;5.20;;;;;;;-3.84;27.17;100939.00;5056009;28;20785;-74
2021/12/11 02:12:44;;;;;;;10.30;5.13;;;;;;;-4.44;27.44;100945.59;5055696;28;20281;-74
2021/12/11 02:15:20;;;;;;;5.83;3.97;;;;;;;-3.61;26.88;100951.41;5072524;28;20650;-73
2021/12/11 02:17:53;;;;;;;6.13;3.97;;;;;;;-3.76;27.02;100944.88;5055449;28;20899;-73
2021/12/11 02:20:28;;;;;;;10.67;4.20;;;;;;;-4.21;27.46;100948.53;5056192;28;20274;-73
2021/12/11 02:22:54;;;;;;;8.10;4.57;;;;;;;-4.52;27.76;100949.25;5089843;28;20288;-73
2021/12/11 02:25:29;;;;;;;12.13;5.13;;;;;;;-4.02;27.57;100942.03;5056093;28;20382;-75
2021/12/11 02:28:19;;;;;;;9.33;4.90;;;;;;;-3.99;27.32;100951.47;5073324;28;20289;-73
2021/12/11 02:30:53;;;;;;;13.30;5.27;;;;;;;-4.34;27.80;100962.66;5055542;28;20308;-73
2021/12/11 02:33:35;;;;;;;10.27;5.47;;;;;;;-4.36;27.73;100972.22;5039240;28;20286;-73
2021/12/11 02:36:17;;;;;;;14.03;4.87;;;;;;;-4.91;28.15;100965.59;5089087;28;20776;-73
2021/12/11 02:38:59;;;;;;;5.80;4.00;;;;;;;-3.85;27.34;100967.59;5072335;28;20289;-73
2021/12/11 02:41:31;;;;;;;8.10;4.80;;;;;;;-4.20;27.51;100963.22;5089390;28;20320;-73
2021/12/11 02:44:06;;;;;;;9.33;4.53;;;;;;;-3.92;27.49;100969.47;5039210;28;20792;-73
2021/12/11 02:46:43;;;;;;;8.53;5.40;;;;;;;-4.14;27.63;100964.81;5055989;28;20670;-73
2021/12/11 02:49:17;;;;;;;7.63;5.07;;;;;;;-4.14;27.58;100963.09;5056096;28;20343;-75
2021/12/11 02:52:02;;;;;;;8.17;5.30;;;;;;;-4.05;27.38;100962.88;5072340;28;20371;-74
2021/12/11 02:54:36;;;;;;;9.70;4.73;;;;;;;-4.29;27.81;100953.03;5072759;28;20411;-75
2021/12/11 02:57:17;;;;;;;8.23;4.83;;;;;;;-4.52;28.27;100949.25;5089491;28;20320;-73
2021/12/11 02:59:45;;;;;;;12.85;5.47;;;;;;;-4.82;27.97;100950.72;5072064;28;20294;-74
2021/12/11 03:02:25;;;;;;;12.87;6.43;;;;;;;-4.28;28.17;100946.97;5072571;28;20040;-76
2021/12/11 03:04:56;;;;;;;11.80;5.47;;;;;;;-4.62;28.03;100947.72;5075426;28;20289;-75
2021/12/11 03:07:24;;;;;;;;;;;;;;;-4.03;27.13;100929.09;5061350;28;20342;-75
2021/12/11 03:09:54;;;;;;;12.73;5.30;;;;;;;-4.24;27.44;100952.91;5093023;28;19962;-76
2021/12/11 03:12:21;;;;;;;9.52;4.80;;;;;;;-4.55;27.33;100963.09;5092948;28;20282;-74
2021/12/11 03:14:47;;;;;;;8.40;4.53;;;;;;;-4.84;27.57;100929.16;5092288;28;20040;-74
2021/12/11 03:17:16;;;;;;;10.60;5.50;;;;;;;-4.36;27.62;100963.56;5075691;28;20317;-74
2021/12/11 03:19:44;;;;;;;9.37;4.40;;;;;;;-4.68;27.63;100966.84;5109799;28;20300;-75
2021/12/11 03:22:14;;;;;;;7.87;5.10;;;;;;;-4.25;27.68;100966.78;5093535;28;20278;-74
2021/12/11 03:24:40;;;;;;;6.47;4.53;;;;;;;-4.57;27.23;100966.63;5058762;28;20290;-74
2021/12/11 03:27:06;;;;;;;13.40;6.17;;;;;;;-4.76;27.83;100963.56;5074892;28;20465;-74
2021/12/11 03:29:33;;;;;;;7.90;4.13;;;;;;;-4.63;27.39;100967.63;5093424;28;20282;-73
2021/12/11 03:31:59;;;;;;;11.23;4.67;;;;;;;-4.67;27.56;100973.72;5042342;28;20711;-74
2021/12/11 03:34:28;;;;;;;9.77;5.97;;;;;;;-4.08;27.49;100973.31;5075018;28;20302;-74
2021/12/11 03:36:55;;;;;;;9.47;5.20;;;;;;;-3.98;27.07;100984.31;5059242;28;20804;-74
2021/12/11 03:39:32;;;;;;;8.80;4.87;;;;;;;-3.86;27.03;100976.28;5094572;28;20306;-73
2021/12/11 03:42:00;;;;;;;6.23;3.90;;;;;;;-3.97;26.80;100966.16;5058514;28;20363;-74
2021/12/11 03:44:32;;;;;;;7.90;4.73;;;;;;;-4.37;27.21;100973.09;5042126;28;20274;-74
2021/12/11 03:47:00;;;;;;;9.47;4.90;;;;;;;-4.19;27.50;100967.50;5092778;28;20317;-74
2021/12/11 03:49:26;;;;;;;13.67;5.27;;;;;;;-4.48;27.25;100954.34;5042066;28;20296;-75
2021/12/11 03:51:53;;;;;;;9.73;5.30;;;;;;;-4.11;27.40;100967.34;5074879;28;20294;-74
2021/12/11 03:54:25;;;;;;;10.53;5.13;;;;;;;-3.96;27.40;100966.97;5091297;28;20388;-74
2021/12/11 03:56:51;;;;;;;12.47;6.60;;;;;;;-4.34;27.25;100961.81;5057946;28;20376;-74
2021/12/11 03:59:18;;;;;;;22.37;6.60;;;;;;;-4.41;26.98;100953.31;5041957;28;20287;-74
2021/12/11 04:01:48;;;;;;;11.33;6.87;;;;;;;-3.99;27.17;100952.34;5091700;28;20769;-74
2021/12/11 04:04:17;;;;;;;;;;;;;;;-3.95;26.94;100950.53;5075332;28;20302;-74
2021/12/11 04:06:45;;;;;;;10.83;4.90;;;;;;;-4.26;27.43;100921.00;5058531;28;19934;-74
2021/12/11 04:09:12;;;;;;;11.63;5.30;;;;;;;-4.21;27.21;100934.69;5092704;28;20301;-74
2021/12/11 04:11:41;;;;;;;7.90;4.30;;;;;;;-4.51;28.02;100931.06;5092823;28;20777;-74
2021/12/11 04:14:17;;;;;;;11.87;6.17;;;;;;;-4.08;27.32;100941.31;5091213;28;20301;-74
2021/12/11 04:16:44;;;;;;;10.30;6.07;;;;;;;-4.56;27.48;100939.81;5073505;28;20282;-74
2021/12/11 04:19:11;;;;;;;10.53;5.97;;;;;;;-4.56;27.37;100940.66;5107690;28;20310;-73
2021/12/11 04:21:38;;;;;;;9.83;5.43;;;;;;;-4.32;27.40;100941.88;5057537;28;20289;-73
2021/12/11 04:24:07;;;;;;;8.83;4.67;;;;;;;-4.30;27.19;100948.72;5074308;28;20364;-73
2021/12/11 04:26:35;;;;;;;13.53;6.17;;;;;;;-4.29;27.19;100941.81;5074101;28;20846;-73
2021/12/11 04:29:03;;;;;;;8.07;5.23;;;;;;;-4.26;27.11;100940.00;5041056;28;20336;-74
2021/12/11 04:31:31;;;;;;;13.10;6.57;;;;;;;-4.22;26.96;100949.44;5074173;28;20282;-74
2021/12/11 04:34:02;;;;;;;9.10;5.60;;;;;;;-4.21;27.10;100913.94;5092225;28;20423;-75
2021/12/11 04:36:32;;;;;;;8.27;4.77;;;;;;;-4.10;27.35;100936.16;5057980;28;20853;-74
2021/12/11 04:39:00;;;;;;;;;;;;;;;-3.61;26.74;100928.91;5091477;28;20278;-74
2021/12/11 04:41:37;;;;;;;9.93;4.53;;;;;;;-3.91;26.71;100934.88;5073617;28;19916;-75
2021/12/11 04:44:10;;;;;;;10.40;4.30;;;;;;;-3.91;26.92;100937.47;5074800;28;20312;-74
2021/12/11 04:46:36;;;;;;;14.03;5.33;;;;;;;-4.89;27.32;100938.78;5091558;28;20297;-73
2021/12/11 04:50:07;;;;;;;10.73;5.50;;;;;;;-4.60;27.93;100935.59;5073664;28;20340;-73
2021/12/11 04:52:15;;;;;;;13.87;5.67;;;;;;;-4.44;27.03;100936.94;5064345;28;20877;-73
2021/12/11 04:54:56;;;;;;;10.53;5.93;;;;;;;-4.45;26.89;100938.72;5075727;28;20356;-73
2021/12/11 05:00:07;;;;;;;10.87;5.50;;;;;;;-4.53;27.05;100944.94;5057142;28;20052;-75
2021/12/11 05:11:07;;;;;;;11.40;5.23;;;;;;;-4.11;26.68;100957.81;5073138;28;20384;-70
2021/12/11 05:13:30;;;;;;;6.73;4.57;;;;;;;-4.13;26.66;100962.19;5075151;28;20282;-69
2021/12/11 05:16:00;;;;;;;8.47;4.43;;;;;;;-3.89;27.11;100964.19;5056351;28;20290;-70
2021/12/11 05:18:28;;;;;;;10.73;5.63;;;;;;;-4.20;26.79;100949.38;5073236;28;20297;-69
2021/12/11 05:20:59;;;;;;;15.20;6.77;;;;;;;-3.97;26.63;100955.78;5056607;28;20420;-69
2021/12/11 05:23:27;;;;;;;12.97;6.47;;;;;;;-4.09;26.66;100955.19;5039608;28;20789;-76
2021/12/11 05:25:54;;;;;;;8.73;5.90;;;;;;;-4.40;26.87;100923.91;5073162;28;20740;-71
2021/12/11 05:28:21;;;;;;;11.10;4.93;;;;;;;-4.46;27.39;100936.16;5089565;28;20447;-67
2021/12/11 05:30:49;;;;;;;13.30;6.20;;;;;;;-4.34;27.24;100939.34;5073601;28;20290;-75
2021/12/11 05:33:19;;;;;;;12.07;5.93;;;;;;;-4.62;27.34;100933.03;5047782;28;20302;-75
2021/12/11 05:35:45;;;;;;;20.67;7.23;;;;;;;-4.80;27.09;100936.00;5033744;28;20286;-72
2021/12/11 05:38:13;;;;;;;8.37;5.27;;;;;;;-4.49;27.05;100905.94;5105936;28;20286;-74
2021/12/11 05:40:42;;;;;;;9.10;5.03;;;;;;;-4.09;27.25;100939.63;5072116;28;20789;-74
2021/12/11 05:43:09;;;;;;;12.20;6.63;;;;;;;-4.81;27.17;100943.81;5089304;28;20274;-74
2021/12/11 05:45:35;;;;;;;10.87;6.40;;;;;;;-4.56;27.79;100945.84;5073837;28;20050;-73
2021/12/11 05:48:01;;;;;;;11.20;5.27;;;;;;;-4.48;27.42;100940.50;5056119;28;20282;-75
2021/12/11 05:50:35;;;;;;;11.37;5.60;;;;;;;-4.02;27.41;100941.19;5089082;28;20286;-74
2021/12/11 05:53:02;;;;;;;14.63;5.57;;;;;;;-4.24;27.13;100951.19;5072152;28;20312;-73
2021/12/11 05:55:31;;;;;;;12.73;5.80;;;;;;;-3.99;27.13;100941.09;5080116;28;20274;-70
2021/12/11 05:58:00;;;;;;;19.47;8.23;;;;;;;-5.18;28.34;100933.28;5055458;28;20514;-72
2021/12/11 06:00:33;;;;;;;6.57;4.57;;;;;;;-4.10;27.69;100946.56;5039058;28;20776;-74
2021/12/11 06:03:01;;;;;;;14.00;7.30;;;;;;;-4.35;27.82;100936.78;5072280;28;20324;-70
2021/12/11 06:05:27;;;;;;;11.63;6.07;;;;;;;-4.58;27.34;100950.22;5055809;28;20649;-73
2021/12/11 06:07:53;;;;;;;11.67;6.37;;;;;;;-4.71;27.99;100903.84;5088653;28;20284;-77
2021/12/11 06:10:24;;;;;;;11.97;6.07;;;;;;;-3.87;27.23;100944.28;5065555;28;20338;-73
2021/12/11 06:12:53;;;;;;;16.47;6.50;;;;;;;-4.16;27.70;100956.22;5048588;28;20291;-73
2021/12/11 06:15:26;;;;;;;9.37;5.87;;;;;;;-4.13;27.25;100935.38;5043826;28;20732;-75
2021/12/11 06:17:53;;;;;;;11.07;6.17;;;;;;;-4.39;27.25;100942.91;5052106;28;20293;-72
2021/12/11 06:20:23;;;;;;;16.47;8.00;;;;;;;-3.99;27.48;100952.34;5051386;28;20314;-74
2021/12/11 06:22:50;;;;;;;9.85;5.63;;;;;;;-4.04;27.26;100964.56;5067885;28;20274;-70
2021/12/11 06:25:23;;;;;;;13.23;5.87;;;;;;;-3.51;26.44;100965.88;5068979;28;20052;-70
2021/12/11 06:27:49;;;;;;;14.43;7.17;;;;;;;-3.84;26.61;100972.75;5054331;28;20343;-68
2021/12/11 06:30:17;;;;;;;12.90;6.83;;;;;;;-3.51;26.45;100968.47;5068276;28;20278;-70
2021/12/11 06:32:43;;;;;;;12.53;6.90;;;;;;;-3.34;26.19;100976.72;5068724;28;20287;-74
2021/12/11 06:35:20;;;;;;;11.90;6.00;;;;;;;-2.92;26.02;100980.75;5050782;28;20364;-70
2021/12/11 06:37:46;;;;;;;22.33;7.17;;;;;;;-3.48;25.89;100968.41;5067403;28;20394;-75
2021/12/11 06:40:13;;;;;;;21.40;7.70;;;;;;;-3.28;25.87;100968.75;5069835;28;20369;-73
2021/12/11 06:42:39;;;;;;;13.80;7.67;;;;;;;-3.13;25.88;100963.16;5068868;28;20282;-67
2021/12/11 06:45:06;;;;;;;16.00;7.73;;;;;;;-3.10;26.03;100970.88;5068931;28;20282;-70
2021/12/11 06:47:32;;;;;;;15.07;8.00;;;;;;;-3.11;25.56;100937.13;5084194;28;20049;-73
2021/12/11 06:49:58;;;;;;;19.43;7.80;;;;;;;-3.01;25.46;100970.63;5067070;28;20378;-68
2021/12/11 06:52:25;;;;;;;16.50;7.77;;;;;;;-2.25;24.83;100971.91;5067667;28;20370;-69
2021/12/11 06:54:52;;;;;;;12.07;6.23;;;;;;;-2.25;24.99;100969.31;5067336;28;20099;-71
2021/12/11 06:57:18;;;;;;;16.13;7.10;;;;;;;-1.71;24.53;100975.41;5067802;28;20728;-75
2021/12/11 06:59:45;;;;;;;16.80;7.30;;;;;;;-1.71;23.75;100970.22;5067924;28;20286;-73
2021/12/11 07:02:11;;;;;;;15.57;7.37;;;;;;;-1.81;23.81;100963.56;5068192;28;20293;-72
2021/12/11 07:04:37;;;;;;;23.73;6.83;;;;;;;-1.62;23.41;100936.03;5083724;28;20313;-72
2021/12/11 07:07:04;;;;;;;15.77;7.50;;;;;;;-1.38;23.32;100958.66;5069259;28;20278;-77
2021/12/11 07:09:30;;;;;;;11.47;6.80;;;;;;;-1.45;23.21;100964.13;5037170;28;20332;-77
2021/12/11 07:11:57;;;;;;;15.10;7.27;;;;;;;-1.33;23.21;100967.19;5039321;28;20282;-76
2021/12/11 07:14:27;;;;;;;27.87;7.57;;;;;;;-1.94;24.70;100941.44;5035148;28;20753;-76
2021/12/11 07:16:53;;;;;;;20.27;6.70;;;;;;;-2.14;24.65;100952.44;5034540;28;20341;-76
2021/12/11 07:19:19;;;;;;;15.87;7.10;;;;;;;-2.26;24.93;100976.25;5051876;28;20286;-78
2021/12/11 07:21:50;;;;;;;21.03;6.60;;;;;;;-1.91;24.21;100925.72;5086791;28;20301;-79
2021/12/11 07:24:21;;;;;;;18.40;7.00;;;;;;;-1.29;24.41;100979.19;5036077;28;20275;-79
2021/12/11 07:26:48;;;;;;;12.75;6.53;;;;;;;-1.60;24.04;100978.53;5036229;28;20287;-79
2021/12/11 07:29:16;;;;;;;17.50;6.97;;;;;;;-1.74;24.78;100978.94;5018441;28;20133;-64
2021/12/11 07:31:45;;;;;;;15.17;7.17;;;;;;;-1.12;24.18;100976.88;5034945;28;20279;-75
2021/12/11 07:34:12;;;;;;;14.50;5.97;;;;;;;-0.71;23.47;100986.72;5033830;28;20303;-71
2021/12/11 07:36:39;;;;;;;17.80;6.40;;;;;;;-1.32;23.87;100986.28;5067297;28;20286;-72
2021/12/11 07:39:09;;;;;;;19.77;8.20;;;;;;;-1.79;23.94;100952.22;5017531;28;20283;-74
2021/12/11 07:41:35;;;;;;;15.70;5.87;;;;;;;-0.54;22.87;100981.72;5034500;28;20832;-73
2021/12/11 07:44:02;;;;;;;19.20;8.13;;;;;;;-0.30;22.58;100985.22;5051149;28;20394;-73
2021/12/11 07:46:31;;;;;;;12.03;5.20;;;;;;;0.40;22.40;100984.16;5051013;28;20290;-74
2021/12/11 07:48:57;;;;;;;25.43;7.33;;;;;;;0.83;21.23;100972.81;5051618;28;20320;-74
2021/12/11 07:51:26;;;;;;;29.67;7.93;;;;;;;1.54;20.96;100988.84;5071538;28;20305;-74
2021/12/11 07:53:53;;;;;;;14.87;6.10;;;;;;;1.93;20.40;100989.66;5037862;28;20307;-72
2021/12/11 07:56:20;;;;;;;21.40;6.53;;;;;;;2.33;19.70;100984.22;5054507;28;20071;-72
2021/12/11 07:58:48;;;;;;;17.87;6.60;;;;;;;3.00;19.76;100989.59;5070859;28;20112;-73
2021/12/11 08:01:15;;;;;;;23.73;6.13;;;;;;;2.76;19.31;100994.34;5021024;28;20047;-74
2021/12/11 08:03:41;;;;;;;24.10;6.10;;;;;;;3.34;18.89;100989.59;5022383;28;20098;-74
2021/12/11 08:06:09;;;;;;;15.93;5.17;;;;;;;4.10;18.45;100970.56;5038761;28;20056;-73
2021/12/11 08:08:36;;;;;;;14.37;5.73;;;;;;;4.86;17.38;100978.41;5055465;28;20036;-72
2021/12/11 08:11:05;;;;;;;14.47;5.73;;;;;;;4.56;17.67;100960.00;5054246;28;21058;-75
2021/12/11 08:13:31;;;;;;;17.83;7.03;;;;;;;4.87;17.20;100977.50;5070546;28;20072;-76
2021/12/11 08:15:58;;;;;;;15.97;6.17;;;;;;;6.05;16.74;100976.38;5054587;28;20500;-76
2021/12/11 08:18:26;;;;;;;13.47;6.60;;;;;;;7.34;15.56;100974.75;5071198;28;20040;-75
2021/12/11 08:20:53;;;;;;;17.50;7.83;;;;;;;7.97;14.77;100978.19;5087238;28;20055;-72
2021/12/11 08:23:20;;;;;;;14.63;6.23;;;;;;;8.07;15.04;100972.13;5085849;28;20135;-73
2021/12/11 08:25:47;;;;;;;17.20;6.97;;;;;;;9.04;14.06;100964.97;5086740;28;20037;-72
2021/12/11 08:28:16;;;;;;;19.80;7.40;;;;;;;9.26;13.50;100959.69;5053695;28;20116;-72
2021/12/11 08:30:45;;;;;;;19.20;6.90;;;;;;;10.03;13.32;100971.22;5070944;28;20094;-72
2021/12/11 08:33:11;;;;;;;15.50;6.40;;;;;;;10.16;12.63;100971.94;5070313;28;20043;-74
2021/12/11 08:35:37;;;;;;;15.37;6.97;;;;;;;10.66;12.82;100959.00;5021214;28;20390;-72
2021/12/11 08:38:05;;;;;;;13.60;6.23;;;;;;;12.20;11.74;100946.47;5054200;28;20049;-73
2021/12/11 08:40:34;;;;;;;23.97;6.60;;;;;;;13.10;11.14;100914.16;5054337;28;20098;-73
2021/12/11 08:43:03;;;;;;;21.77;6.37;;;;;;;14.26;10.42;100932.25;5054362;28;20408;-73
2021/12/11 08:45:44;;;;;;;23.48;7.38;;;;;;;14.88;10.04;100948.28;5054253;28;20047;-73
2021/12/11 08:48:14;;;;;;;18.88;7.75;;;;;;;15.49;9.38;100941.06;5056707;28;20051;-73
2021/12/11 08:50:41;;;;;;;23.67;7.78;;;;;;;15.97;9.19;100917.22;5071684;28;20136;-74
2021/12/11 08:53:07;;;;;;;21.75;6.93;;;;;;;16.50;8.78;100935.66;5037902;28;20040;-75
2021/12/11 08:55:37;;;;;;;18.23;6.85;;;;;;;17.77;8.35;100933.13;5037208;28;20040;-74
2021/12/11 08:58:06;;;;;;;15.02;6.38;;;;;;;18.22;7.74;100917.97;5037571;28;20045;-74
2021/12/11 09:00:35;;;;;;;15.65;6.53;;;;;;;18.64;7.43;100935.59;5053923;28;20047;-75
2021/12/11 09:03:15;;;;;;;21.02;6.97;;;;;;;19.91;6.93;100935.47;5036967;28;20044;-74
2021/12/11 09:05:49;;;;;;;18.73;6.63;;;;;;;20.67;6.38;100935.78;5071120;28;20056;-74
2021/12/11 09:08:26;;;;;;;21.60;6.72;;;;;;;21.07;6.28;100910.03;5053965;28;20131;-74
2021/12/11 09:10:57;;;;;;;20.45;7.55;;;;;;;21.02;6.16;100899.81;5087320;28;20052;-74
2021/12/11 09:13:54;;;;;;;23.58;7.50;;;;;;;21.50;5.97;100930.53;5053584;28;20055;-74
2021/12/11 09:16:29;;;;;;;28.73;7.65;;;;;;;21.48;5.98;100936.13;5053794;28;20131;-74
2021/12/11 09:19:05;;;;;;;30.70;8.00;;;;;;;22.09;5.72;100929.06;5053898;28;20094;-74
2021/12/11 09:21:39;;;;;;;14.85;7.05;;;;;;;22.24;5.33;100921.63;5070236;28;20090;-74
2021/12/11 09:24:20;;;;;;;17.15;7.68;;;;;;;22.28;5.14;100922.88;5070348;28;20098;-74
2021/12/11 09:26:48;;;;;;;;;;;;;;;22.54;5.26;100919.47;5072310;28;20519;-74
2021/12/11 09:29:32;;;;;;;13.70;6.63;;;;;;;22.22;5.27;100920.16;5037151;28;19924;-74
2021/12/11 09:32:02;;;;;;;14.15;6.85;;;;;;;22.25;5.28;100915.16;5053756;28;20060;-74
2021/12/11 09:34:34;;;;;;;17.88;7.07;;;;;;;22.80;5.37;100914.94;5070579;28;20117;-74
2021/12/11 09:37:02;;;;;;;21.45;7.35;;;;;;;23.32;5.04;100907.91;5070638;28;20067;-74
2021/12/11 09:39:53;;;;;;;20.98;6.80;;;;;;;23.19;4.91;100911.41;5070023;28;20044;-74
2021/12/11 09:42:18;;;;;;;27.88;8.60;;;;;;;22.76;4.96;100899.28;5036742;28;20040;-74
2021/12/11 09:45:07;;;;;;;35.17;10.88;;;;;;;23.22;4.61;100897.44;5037144;28;20059;-75
2021/12/11 09:47:40;;;;;;;19.45;7.88;;;;;;;23.04;4.68;100898.09;5069883;28;20071;-74
2021/12/11 09:50:13;;;;;;;21.30;8.25;;;;;;;23.05;4.73;100894.31;5070071;28;20131;-74
2021/12/11 09:52:41;;;;;;;21.05;9.15;;;;;;;23.14;4.71;100897.66;5054014;28;20131;-75
2021/12/11 09:55:15;;;;;;;15.50;8.07;;;;;;;23.40;4.41;100896.84;5071229;28;20457;-75
2021/12/11 09:57:44;;;;;;;21.45;8.38;;;;;;;23.24;4.80;100893.53;5070314;28;20040;-74
2021/12/11 10:00:16;;;;;;;27.45;8.35;;;;;;;22.91;4.61;100891.81;5069376;28;20488;-75
2021/12/11 10:02:42;;;;;;;29.77;8.05;;;;;;;22.23;4.80;100884.78;5053233;28;20048;-74
2021/12/11 10:05:35;;;;;;;18.38;8.10;;;;;;;23.00;4.82;100888.69;5070442;28;20147;-74
2021/12/11 10:11:32;;;;;;;22.98;8.15;;;;;;;22.28;5.04;100878.75;5069599;28;20044;-74
2021/12/11 10:14:11;;;;;;;15.55;7.45;;;;;;;22.31;4.85;100873.75;5051260;28;20134;-74
2021/12/11 10:16:44;;;;;;;15.98;7.63;;;;;;;21.85;5.18;100874.63;5053206;28;20496;-74
2021/12/11 10:19:13;;;;;;;16.45;7.88;;;;;;;21.79;5.09;100878.94;5052724;28;20131;-74
2021/12/11 10:21:43;;;;;;;16.35;8.00;;;;;;;21.99;4.96;100879.06;5036898;28;20739;-74
2021/12/11 10:24:13;;;;;;;18.02;8.18;;;;;;;21.77;5.26;100881.03;5069164;28;20036;-75
2021/12/11 10:26:40;;;;;;;17.30;7.50;;;;;;;21.37;5.33;100884.50;5085959;28;20292;-74
2021/12/11 10:29:10;;;;;;;19.85;7.57;;;;;;;21.54;5.15;100875.06;5052428;28;20048;-75
2021/12/11 10:31:42;;;;;;;16.88;7.65;;;;;;;21.74;5.28;100876.00;5070706;28;20048;-74
2021/12/11 10:34:14;;;;;;;14.13;8.63;;;;;;;21.62;5.26;100875.72;5074148;28;20099;-73
2021/12/11 10:36:49;;;;;;;16.75;10.20;;;;;;;21.63;5.35;100881.97;5077815;28;20217;-76
2021/12/11 10:39:16;;;;;;;20.13;9.73;;;;;;;21.26;5.43;100874.22;5061217;28;20036;-75
2021/12/11 10:41:42;;;;;;;20.08;10.52;;;;;;;21.13;5.45;100874.13;5074300;28;20044;-75
2021/12/11 10:44:13;;;;;;;19.92;10.32;;;;;;;21.13;5.09;100869.56;5052192;28;20044;-74
2021/12/11 10:46:45;;;;;;;16.80;9.05;;;;;;;21.09;5.74;100857.47;5052973;28;20047;-74
2021/12/11 10:49:12;;;;;;;20.67;9.20;;;;;;;20.82;5.49;100858.25;5053384;28;20043;-74
2021/12/11 10:51:48;;;;;;;22.35;11.30;;;;;;;20.59;5.41;100854.09;5052145;28;20049;-75
2021/12/11 10:54:16;;;;;;;19.65;9.77;;;;;;;20.21;5.79;100848.09;5051960;28;20103;-74
2021/12/11 10:56:43;;;;;;;20.20;10.07;;;;;;;20.30;5.68;100852.34;5052303;28;20101;-74
2021/12/11 10:59:20;;;;;;;21.77;9.70;;;;;;;20.42;5.67;100833.78;5035118;28;20574;-74
2021/12/11 11:01:58;;;;;;;22.60;9.35;;;;;;;20.42;5.45;100841.88;5069683;28;20064;-74
2021/12/11 11:04:35;;;;;;;21.10;9.52;;;;;;;20.10;5.54;100845.84;5052913;28;20041;-74
2021/12/11 11:07:03;;;;;;;15.48;8.95;;;;;;;19.52;5.92;100854.03;5035822;28;20036;-74
2021/12/11 11:09:29;;;;;;;19.80;9.43;;;;;;;19.09;5.93;100842.16;5051996;28;20090;-74
2021/12/11 11:11:58;;;;;;;20.00;9.90;;;;;;;18.79;6.41;100839.59;5068824;28;20135;-74
2021/12/11 11:14:26;;;;;;;22.65;9.65;;;;;;;18.53;6.37;100833.75;5068640;28;20040;-74
2021/12/11 11:16:57;;;;;;;17.70;9.80;;;;;;;18.76;6.48;100818.44;5035135;28;20059;-74
2021/12/11 11:19:24;;;;;;;;;;;;;;;19.02;6.14;100838.53;5086020;28;20037;-74
2021/12/11 11:21:57;;;;;;;20.38;10.90;;;;;;;18.29;6.61;100808.69;5068499;28;20330;-74
2021/12/11 11:24:32;;;;;;;22.23;10.07;;;;;;;18.45;6.64;100838.16;5036233;28;20098;-75
2021/12/11 11:26:59;;;;;;;17.13;9.50;;;;;;;17.71;6.87;100834.41;5038960;28;20082;-74
2021/12/11 11:29:26;;;;;;;18.40;9.55;;;;;;;17.45;7.06;100813.16;5055765;28;20396;-74
2021/12/11 11:31:56;;;;;;;13.52;8.77;;;;;;;17.29;7.23;100817.72;5073652;28;20469;-74
2021/12/11 11:34:24;;;;;;;16.35;9.55;;;;;;;16.76;7.27;100815.63;5038907;28;20424;-74
2021/12/11 11:36:51;;;;;;;13.95;8.55;;;;;;;15.91;7.79;100791.09;5089402;28;20044;-74
2021/12/11 11:39:19;;;;;;;20.52;9.65;;;;;;;15.63;7.98;100805.75;5071961;28;20045;-74
2021/12/11 11:41:49;;;;;;;20.80;9.95;;;;;;;15.21;8.30;100830.63;5038844;28;20051;-73
2021/12/11 11:44:15;;;;;;;17.02;9.35;;;;;;;13.84;8.70;100792.19;5055286;28;20036;-74
2021/12/11 11:46:42;;;;;;;14.93;8.77;;;;;;;14.11;8.77;100818.84;5038978;28;20036;-73
2021/12/11 11:49:10;;;;;;;16.58;8.75;;;;;;;13.91;8.93;100820.81;5039126;28;20486;-73
2021/12/11 11:51:47;;;;;;;15.30;8.57;;;;;;;13.69;9.29;100810.53;5072090;28;20135;-73
2021/12/11 11:54:15;;;;;;;15.50;8.65;;;;;;;13.08;9.66;100815.63;5073513;28;20052;-74